createdAt,value
2023-02-08T00:00:49.372Z,100385.94
2023-02-08T00:03:16.554Z,100383.69
2023-02-08T00:05:43.182Z,100380.19
2023-02-08T00:08:10.002Z,100369.75
2023-02-08T00:10:36.621Z,100364.34
2023-02-08T00:13:03.724Z,100372.00
2023-02-08T00:15:30.396Z,100367.34
2023-02-08T00:17:57.101Z,100367.66
2023-02-08T00:20:26.661Z,100365.50
2023-02-08T00:22:53.551Z,100364.81
2023-02-08T00:25:20.272Z,100361.44
2023-02-08T00:27:47.020Z,100363.59
2023-02-08T00:30:13.754Z,100360.09
2023-02-08T00:32:40.345Z,100361.31
2023-02-08T00:35:07.448Z,100363.16
2023-02-08T00:37:34.228Z,100365.13
2023-02-08T00:40:02.523Z,100364.19
2023-02-08T00:42:30.238Z,100370.28
2023-02-08T00:44:57.162Z,100372.75
2023-02-08T00:47:24.678Z,100370.69
2023-02-08T00:49:51.576Z,100370.97
2023-02-08T00:52:18.535Z,100368.28
2023-02-08T00:54:45.220Z,100370.69
2023-02-08T00:57:11.830Z,100364.97
2023-02-08T00:59:38.525Z,100370.88
2023-02-08T01:02:05.309Z,100369.41
2023-02-08T01:04:32.011Z,100366.78
2023-02-08T01:06:58.764Z,100370.97
2023-02-08T01:09:25.588Z,100365.63
2023-02-08T01:11:52.255Z,100369.16
2023-02-08T01:14:18.902Z,100371.84
2023-02-08T01:16:45.564Z,100371.56
2023-02-08T01:19:13.386Z,100367.81
2023-02-08T01:21:41.618Z,100369.13
2023-02-08T01:24:08.623Z,100361.19
2023-02-08T01:26:35.312Z,100360.09
2023-02-08T01:29:04.004Z,100355.16
2023-02-08T01:31:33.388Z,100355.16
2023-02-08T01:34:00.916Z,100347.88
2023-02-08T01:36:29.286Z,100345.38
2023-02-08T01:38:56.291Z,100345.34
2023-02-08T01:41:28.199Z,100349.44
2023-02-08T01:44:19.286Z,100344.31
2023-02-08T01:46:51.573Z,100341.00
2023-02-08T01:49:28.006Z,100353.19
2023-02-08T01:52:09.293Z,100360.97
2023-02-08T01:54:40.499Z,100347.31
2023-02-08T01:57:07.880Z,100346.28
2023-02-08T01:59:50.033Z,100344.34
2023-02-08T02:02:19.159Z,100347.19
2023-02-08T02:04:48.758Z,100344.56
2023-02-08T02:07:17.164Z,100348.06
2023-02-08T02:09:59.870Z,100344.22
2023-02-08T02:12:27.259Z,100339.38
2023-02-08T02:14:53.946Z,100336.91
2023-02-08T02:17:20.737Z,100336.91
2023-02-08T02:20:11.612Z,100336.13
2023-02-08T02:23:10.920Z,100330.25
2023-02-08T02:26:00.235Z,100330.03
2023-02-08T02:28:52.889Z,100323.94
2023-02-08T02:31:59.257Z,100329.75
2023-02-08T02:34:57.426Z,100332.81
2023-02-08T02:37:47.671Z,100323.88
2023-02-08T02:40:34.160Z,100320.59
2023-02-08T02:43:38.529Z,100321.47
2023-02-08T02:46:11.123Z,100320.38
2023-02-08T02:48:58.947Z,100318.94
2023-02-08T02:51:35.018Z,100309.94
2023-02-08T02:54:22.966Z,100311.25
2023-02-08T02:56:55.752Z,100308.44
2023-02-08T02:59:23.024Z,100310.34
2023-02-08T03:01:49.606Z,100310.34
2023-02-08T03:04:19.206Z,100306.19
2023-02-08T03:07:01.938Z,100314.44
2023-02-08T03:09:40.634Z,100303.91
2023-02-08T03:12:32.497Z,100299.00
2023-02-08T03:15:11.813Z,100294.72
2023-02-08T03:18:04.467Z,100301.50
2023-02-08T03:20:47.320Z,100292.94
2023-02-08T03:23:31.157Z,100292.13
2023-02-08T03:26:16.093Z,100295.41
2023-02-08T03:28:56.983Z,100294.38
2023-02-08T03:31:32.955Z,100289.13
2023-02-08T03:34:08.549Z,100287.31
2023-02-08T03:36:44.486Z,100291.72
2023-02-08T03:39:15.618Z,100300.47
2023-02-08T03:41:46.335Z,100299.22
2023-02-08T03:44:19.455Z,100300.00
2023-02-08T03:46:54.668Z,100299.72
2023-02-08T03:49:25.779Z,100291.31
2023-02-08T03:51:54.343Z,100296.44
2023-02-08T03:54:26.076Z,100301.47
2023-02-08T03:56:59.510Z,100294.69
2023-02-08T03:59:32.730Z,100286.94
2023-02-08T04:02:06.226Z,100287.53
2023-02-08T04:04:35.742Z,100287.22
2023-02-08T04:07:02.725Z,100281.47
2023-02-08T04:09:29.365Z,100288.13
2023-02-08T04:11:56.092Z,100286.38
2023-02-08T04:14:22.900Z,100283.09
2023-02-08T04:16:49.639Z,100276.13
2023-02-08T04:19:16.275Z,100291.13
2023-02-08T04:21:42.911Z,100292.78
2023-02-08T04:24:09.695Z,100293.66
2023-02-08T04:26:36.373Z,100293.31
2023-02-08T04:29:03.643Z,100301.03
2023-02-08T04:31:30.527Z,100296.56
2023-02-08T04:33:57.183Z,100299.94
2023-02-08T04:36:23.959Z,100290.63
2023-02-08T04:38:50.578Z,100286.31
2023-02-08T04:41:17.335Z,100291.59
2023-02-08T04:43:44.007Z,100292.31
2023-02-08T04:46:11.184Z,100279.91
2023-02-08T04:48:38.000Z,100278.78
2023-02-08T04:51:04.756Z,100277.91
2023-02-08T04:53:31.343Z,100274.25
2023-02-08T04:55:58.074Z,100272.63
2023-02-08T04:58:24.731Z,100277.97
2023-02-08T05:00:51.377Z,100269.91
2023-02-08T05:03:18.254Z,100266.31
2023-02-08T05:05:45.052Z,100265.34
2023-02-08T05:08:11.737Z,100264.69
2023-02-08T05:10:43.573Z,100265.75
2023-02-08T05:13:10.223Z,100266.53
2023-02-08T05:15:37.081Z,100262.28
2023-02-08T05:18:03.775Z,100257.25
2023-02-08T05:20:30.664Z,100253.06
2023-02-08T05:22:57.305Z,100262.66
2023-02-08T05:25:23.936Z,100260.06
2023-02-08T05:27:50.690Z,100264.31
2023-02-08T05:30:17.395Z,100266.91
2023-02-08T05:32:44.085Z,100262.53
2023-02-08T05:35:10.704Z,100253.91
2023-02-08T05:37:37.317Z,100259.69
2023-02-08T05:40:04.132Z,100269.16
2023-02-08T05:42:30.831Z,100269.91
2023-02-08T05:44:57.510Z,100271.75
2023-02-08T05:47:24.164Z,100271.50
2023-02-08T05:49:50.800Z,100274.06
2023-02-08T05:52:17.408Z,100273.00
2023-02-08T05:54:44.092Z,100281.38
2023-02-08T05:57:10.736Z,100275.53
2023-02-08T05:59:37.363Z,100284.38
2023-02-08T06:02:04.014Z,100283.47
2023-02-08T06:04:30.677Z,100279.69
2023-02-08T06:06:57.288Z,100275.69
2023-02-08T06:09:23.968Z,100280.22
2023-02-08T06:11:50.635Z,100274.88
2023-02-08T06:14:17.301Z,100276.44
2023-02-08T06:16:44.200Z,100276.19
2023-02-08T06:19:10.858Z,100271.66
2023-02-08T06:21:37.442Z,100284.88
2023-02-08T06:24:06.676Z,100289.94
2023-02-08T06:26:34.253Z,100287.63
2023-02-08T06:29:00.907Z,100292.13
2023-02-08T06:31:27.633Z,100288.69
2023-02-08T06:33:54.312Z,100288.00
2023-02-08T06:36:20.952Z,100300.88
2023-02-08T06:38:47.880Z,100300.13
2023-02-08T06:41:15.275Z,100292.31
2023-02-08T06:43:41.887Z,100296.34
2023-02-08T06:46:08.734Z,100289.94
2023-02-08T06:48:36.398Z,100291.88
2023-02-08T06:51:03.709Z,100296.06
2023-02-08T06:53:30.783Z,100293.59
2023-02-08T06:55:57.484Z,100295.38
2023-02-08T06:58:24.085Z,100296.72
2023-02-08T07:00:50.866Z,100297.97
2023-02-08T07:03:17.708Z,100296.44
2023-02-08T07:05:58.686Z,100295.16
2023-02-08T07:08:31.407Z,100302.00
2023-02-08T07:10:58.010Z,100304.75
2023-02-08T07:13:24.644Z,100298.41
2023-02-08T07:15:51.246Z,100298.78
2023-02-08T07:18:18.173Z,100301.38
2023-02-08T07:20:44.816Z,100305.28
2023-02-08T07:23:11.480Z,100301.47
2023-02-08T07:25:38.124Z,100307.84
2023-02-08T07:28:04.968Z,100306.34
2023-02-08T07:30:31.691Z,100297.50
2023-02-08T07:32:58.996Z,100304.78
2023-02-08T07:35:25.694Z,100304.88
2023-02-08T07:37:52.477Z,100303.59
2023-02-08T07:40:19.254Z,100293.31
2023-02-08T07:42:46.057Z,100286.22
2023-02-08T07:45:29.068Z,100291.72
2023-02-08T07:47:55.745Z,100290.06
2023-02-08T07:50:22.450Z,100295.00
2023-02-08T07:52:49.120Z,100286.06
2023-02-08T07:55:17.112Z,100288.34
2023-02-08T07:57:44.628Z,100290.16
2023-02-08T08:00:12.447Z,100283.22
2023-02-08T08:02:39.455Z,100279.22
2023-02-08T08:05:06.841Z,100276.53
2023-02-08T08:07:33.619Z,100274.50
2023-02-08T08:10:00.334Z,100268.56
2023-02-08T08:12:26.998Z,100266.28
2023-02-08T08:14:53.671Z,100272.53
2023-02-08T08:17:20.326Z,100270.34
2023-02-08T08:19:47.208Z,100266.47
2023-02-08T08:22:13.778Z,100252.66
2023-02-08T08:24:40.418Z,100263.38
2023-02-08T08:27:07.652Z,100255.75
2023-02-08T08:29:36.130Z,100252.53
2023-02-08T08:32:04.167Z,100241.31
2023-02-08T08:34:31.800Z,100248.00
2023-02-08T08:37:02.821Z,100259.25
2023-02-08T08:39:29.527Z,100249.66
2023-02-08T08:42:00.717Z,100244.19
2023-02-08T08:44:27.343Z,100248.81
2023-02-08T08:46:58.116Z,100237.03
2023-02-08T08:49:25.864Z,100218.28
2023-02-08T08:51:52.566Z,100218.00
2023-02-08T08:54:19.648Z,100214.09
2023-02-08T08:56:46.306Z,100211.31
2023-02-08T08:59:13.171Z,100210.41
2023-02-08T09:01:42.193Z,100206.75
2023-02-08T09:04:10.190Z,100197.19
2023-02-08T09:06:37.220Z,100212.22
2023-02-08T09:09:04.247Z,100213.06
2023-02-08T09:11:33.089Z,100214.97
2023-02-08T09:14:04.274Z,100220.56
2023-02-08T09:16:32.082Z,100214.59
2023-02-08T09:19:06.185Z,100217.06
2023-02-08T09:21:33.811Z,100208.34
2023-02-08T09:24:04.235Z,100203.47
2023-02-08T09:26:30.928Z,100212.91
2023-02-08T09:28:57.560Z,100205.59
2023-02-08T09:31:26.972Z,100210.91
2023-02-08T09:33:56.551Z,100197.13
2023-02-08T09:36:25.488Z,100198.84
2023-02-08T09:39:00.170Z,100193.25
2023-02-08T09:41:35.918Z,100180.53
2023-02-08T09:44:41.119Z,100175.63
2023-02-08T09:47:28.677Z,100170.56
2023-02-08T09:50:17.468Z,100168.00
2023-02-08T09:52:50.599Z,100166.31
2023-02-08T09:55:36.689Z,100169.09
2023-02-08T09:58:13.949Z,100163.63
2023-02-08T10:00:44.258Z,100165.53
2023-02-08T10:03:42.419Z,100167.69
2023-02-08T10:06:12.972Z,100155.38
2023-02-08T10:08:40.692Z,100151.13
2023-02-08T10:11:25.985Z,100160.00
2023-02-08T10:14:21.002Z,100145.03
2023-02-08T10:16:53.559Z,100134.94
2023-02-08T10:19:42.037Z,100137.13
2023-02-08T10:22:34.635Z,100129.94
2023-02-08T10:25:27.817Z,100133.13
2023-02-08T10:28:11.126Z,100120.78
2023-02-08T10:31:00.490Z,100126.63
2023-02-08T10:33:32.508Z,100131.59
2023-02-08T10:35:59.332Z,100134.47
2023-02-08T10:38:46.027Z,100141.03
2023-02-08T10:41:20.751Z,100131.81
2023-02-08T10:43:55.538Z,100126.44
2023-02-08T10:46:51.487Z,100116.44
2023-02-08T10:49:38.315Z,100127.56
2023-02-08T10:52:06.025Z,100126.13
2023-02-08T10:54:34.859Z,100124.44
2023-02-08T10:57:05.392Z,100121.75
2023-02-08T10:59:51.068Z,100117.69
2023-02-08T11:02:31.660Z,100121.03
2023-02-08T11:04:58.991Z,100108.50
2023-02-08T11:07:25.793Z,100110.09
2023-02-08T11:09:53.248Z,100115.88
2023-02-08T11:12:22.894Z,100104.59
2023-02-08T11:14:52.136Z,100100.59
2023-02-08T11:17:31.774Z,100106.28
2023-02-08T11:19:59.304Z,100107.69
2023-02-08T11:22:31.002Z,100104.06
2023-02-08T11:25:05.726Z,100096.63
2023-02-08T11:27:33.834Z,100090.84
2023-02-08T11:30:09.589Z,100088.19
2023-02-08T11:32:36.788Z,100086.81
2023-02-08T11:35:21.755Z,100090.44
2023-02-08T11:37:49.546Z,100073.97
2023-02-08T11:40:24.713Z,100085.69
2023-02-08T11:42:52.599Z,100085.69
2023-02-08T11:45:23.492Z,100076.47
2023-02-08T11:47:51.368Z,100081.88
2023-02-08T11:50:27.011Z,100070.22
2023-02-08T11:53:00.457Z,100075.88
2023-02-08T11:55:29.877Z,100070.13
2023-02-08T11:58:05.652Z,100076.38
2023-02-08T12:00:36.498Z,100072.19
2023-02-08T12:03:23.661Z,100083.06
2023-02-08T12:06:27.499Z,100073.31
2023-02-08T12:09:12.542Z,100064.19
2023-02-08T12:11:43.312Z,100061.84
2023-02-08T12:14:24.977Z,100069.66
2023-02-08T12:16:51.585Z,100061.03
2023-02-08T12:19:42.731Z,100062.69
2023-02-08T12:22:18.914Z,100060.22
2023-02-08T12:24:51.891Z,100063.56
2023-02-08T12:27:58.837Z,100062.66
2023-02-08T12:30:29.615Z,100057.84
2023-02-08T12:33:18.192Z,100060.25
2023-02-08T12:36:03.718Z,100056.44
2023-02-08T12:39:27.332Z,100067.75
2023-02-08T12:42:15.321Z,100064.50
2023-02-08T12:44:51.228Z,100070.03
2023-02-08T12:47:17.854Z,100062.91
2023-02-08T12:50:24.500Z,100070.22
2023-02-08T12:52:57.245Z,100065.34
2023-02-08T12:55:38.048Z,100063.72
2023-02-08T12:58:30.927Z,100056.53
2023-02-08T13:01:21.159Z,100060.56
2023-02-08T13:04:08.443Z,100060.50
2023-02-08T13:06:40.804Z,100056.09
2023-02-08T13:09:58.399Z,100057.72
2023-02-08T13:12:35.421Z,100053.25
2023-02-08T13:15:29.690Z,100059.25
2023-02-08T13:17:59.976Z,100059.22
2023-02-08T13:20:45.033Z,100061.63
2023-02-08T13:23:20.868Z,100049.19
2023-02-08T13:25:50.933Z,100047.47
2023-02-08T13:28:21.707Z,100046.69
2023-02-08T13:31:14.843Z,100043.78
2023-02-08T13:34:00.340Z,100043.53
2023-02-08T13:36:35.871Z,100039.28
2023-02-08T13:39:09.538Z,100044.28
2023-02-08T13:41:37.398Z,100035.56
2023-02-08T13:44:07.537Z,100032.13
2023-02-08T13:46:45.353Z,100029.50
2023-02-08T13:49:41.784Z,100029.72
2023-02-08T13:52:10.225Z,100033.06
2023-02-08T13:54:37.093Z,100038.19
2023-02-08T13:57:25.894Z,100025.94
2023-02-08T14:00:33.734Z,100023.84
2023-02-08T14:03:20.024Z,100027.47
2023-02-08T14:06:07.857Z,100018.53
2023-02-08T14:08:44.015Z,100018.66
2023-02-08T14:11:41.037Z,100020.31
2023-02-08T14:14:19.521Z,100015.00
2023-02-08T14:17:07.334Z,100021.38
2023-02-08T14:19:40.133Z,100014.22
2023-02-08T14:22:12.913Z,100012.44
2023-02-08T14:24:48.147Z,100016.69
2023-02-08T14:27:38.672Z,100007.84
2023-02-08T14:30:17.565Z,100010.59
2023-02-08T14:33:04.061Z,100011.78
2023-02-08T14:35:34.154Z,100007.53
2023-02-08T14:38:50.833Z,99997.19
2023-02-08T14:41:42.368Z,99999.78
2023-02-08T14:44:43.368Z,99993.63
2023-02-08T14:47:25.240Z,99998.22
2023-02-08T14:50:01.781Z,100001.56
2023-02-08T14:52:30.229Z,100000.56
2023-02-08T14:55:08.159Z,99992.59
2023-02-08T14:57:36.640Z,99991.63
2023-02-08T15:00:16.576Z,99989.94
2023-02-08T15:02:48.283Z,99990.03
2023-02-08T15:05:26.618Z,99996.13
2023-02-08T15:07:57.001Z,99994.50
2023-02-08T15:10:25.936Z,99992.72
2023-02-08T15:12:56.356Z,99999.66
2023-02-08T15:15:29.586Z,100003.81
2023-02-08T15:17:57.289Z,100001.19
2023-02-08T15:20:27.567Z,99993.31
2023-02-08T15:23:17.982Z,99989.78
2023-02-08T15:25:55.081Z,99993.91
2023-02-08T15:28:23.860Z,99991.25
2023-02-08T15:31:00.652Z,99994.44
2023-02-08T15:33:27.883Z,99988.97
2023-02-08T15:36:14.223Z,99983.34
2023-02-08T15:38:44.804Z,99988.47
2023-02-08T15:41:23.808Z,99987.47
2023-02-08T15:43:50.518Z,99983.63
2023-02-08T15:46:23.705Z,99980.13
2023-02-08T15:48:51.316Z,99983.25
2023-02-08T15:51:22.886Z,99978.69
2023-02-08T15:53:53.749Z,99982.72
2023-02-08T15:56:37.984Z,99986.28
2023-02-08T15:59:16.072Z,99985.34
2023-02-08T16:01:47.286Z,99983.34
2023-02-08T16:04:13.985Z,99988.53
2023-02-08T16:06:53.283Z,99983.13
2023-02-08T16:09:27.373Z,99985.69
2023-02-08T16:11:58.396Z,99992.50
2023-02-08T16:14:29.392Z,99996.72
2023-02-08T16:16:58.366Z,99989.47
2023-02-08T16:19:28.172Z,99995.63
2023-02-08T16:22:14.584Z,99994.50
2023-02-08T16:24:41.381Z,99994.19
2023-02-08T16:27:26.625Z,100000.84
2023-02-08T16:29:54.087Z,100007.16
2023-02-08T16:32:31.584Z,100010.47
2023-02-08T16:34:58.485Z,100012.91
2023-02-08T16:37:33.346Z,100019.91
2023-02-08T16:40:02.638Z,100021.22
2023-02-08T16:42:31.430Z,100013.44
2023-02-08T16:45:18.355Z,100020.34
2023-02-08T16:47:49.865Z,100015.47
2023-02-08T16:50:19.760Z,100016.97
2023-02-08T16:52:49.892Z,100030.03
2023-02-08T16:55:19.674Z,100021.19
2023-02-08T16:57:50.240Z,100021.06
2023-02-08T17:00:24.392Z,100022.63
2023-02-08T17:02:51.657Z,100022.28
2023-02-08T17:05:19.319Z,100028.28
2023-02-08T17:07:46.145Z,100026.41
2023-02-08T17:10:30.519Z,100026.94
2023-02-08T17:13:13.452Z,100025.69
2023-02-08T17:15:46.925Z,100038.09
2023-02-08T17:18:14.345Z,100031.88
2023-02-08T17:20:41.267Z,100035.31
2023-02-08T17:23:07.976Z,100034.50
2023-02-08T17:25:35.485Z,100037.63
2023-02-08T17:28:06.188Z,100035.09
2023-02-08T17:30:38.840Z,100038.56
2023-02-08T17:33:11.391Z,100045.22
2023-02-08T17:35:38.335Z,100042.63
2023-02-08T17:38:05.795Z,100045.09
2023-02-08T17:40:35.766Z,100044.25
2023-02-08T17:43:03.600Z,100045.06
2023-02-08T17:45:30.952Z,100046.72
2023-02-08T17:48:00.208Z,100047.31
2023-02-08T17:50:27.215Z,100043.81
2023-02-08T17:52:54.111Z,100048.13
2023-02-08T17:55:21.250Z,100055.88
2023-02-08T17:57:48.341Z,100060.91
2023-02-08T18:00:21.147Z,100051.84
2023-02-08T18:02:50.955Z,100051.97
2023-02-08T18:05:22.885Z,100054.91
2023-02-08T18:07:51.066Z,100053.75
2023-02-08T18:10:18.097Z,100050.03
2023-02-08T18:12:45.322Z,100051.75
2023-02-08T18:15:15.524Z,100050.06
2023-02-08T18:17:43.356Z,100050.72
2023-02-08T18:20:14.112Z,100050.69
2023-02-08T18:22:42.450Z,100052.84
2023-02-08T18:25:10.584Z,100047.00
2023-02-08T18:27:37.307Z,100047.25
2023-02-08T18:30:04.224Z,100053.28
2023-02-08T18:32:31.119Z,100048.09
2023-02-08T18:34:58.675Z,100049.72
2023-02-08T18:37:25.375Z,100052.22
2023-02-08T18:39:52.275Z,100049.59
2023-02-08T18:42:18.977Z,100041.25
2023-02-08T18:44:45.727Z,100045.84
2023-02-08T18:47:12.636Z,100043.28
2023-02-08T18:49:42.101Z,100038.31
2023-02-08T18:52:13.369Z,100040.13
2023-02-08T18:54:40.231Z,100036.44
2023-02-08T18:57:10.573Z,100037.28
2023-02-08T18:59:38.412Z,100035.38
2023-02-08T19:02:07.179Z,100032.03
2023-02-08T19:04:40.176Z,100027.50
2023-02-08T19:07:07.131Z,100024.84
2023-02-08T19:09:38.559Z,100021.41
2023-02-08T19:12:05.642Z,100025.72
2023-02-08T19:14:32.305Z,100029.41
2023-02-08T19:16:59.465Z,100033.72
2023-02-08T19:19:26.606Z,100030.06
2023-02-08T19:21:53.416Z,100021.91
2023-02-08T19:24:20.078Z,100024.53
2023-02-08T19:26:47.086Z,100023.25
2023-02-08T19:29:16.573Z,100022.47
2023-02-08T19:31:44.685Z,100023.16
2023-02-08T19:34:12.331Z,100033.34
2023-02-08T19:36:51.731Z,100025.03
2023-02-08T19:39:26.725Z,100020.03
2023-02-08T19:41:54.098Z,100025.19
2023-02-08T19:44:21.351Z,100026.78
2023-02-08T19:46:55.550Z,100031.03
2023-02-08T19:49:25.378Z,100027.31
2023-02-08T19:51:52.286Z,100040.44
2023-02-08T19:54:20.164Z,100030.19
2023-02-08T19:56:50.120Z,100021.25
2023-02-08T19:59:19.885Z,100023.16
2023-02-08T20:01:46.940Z,100027.38
2023-02-08T20:04:14.177Z,100023.09
2023-02-08T20:06:41.791Z,100016.16
2023-02-08T20:09:08.566Z,100014.44
2023-02-08T20:11:45.036Z,100014.97
2023-02-08T20:14:17.970Z,100018.53
2023-02-08T20:16:44.624Z,100013.84
2023-02-08T20:19:12.356Z,100011.88
2023-02-08T20:21:40.312Z,100014.69
2023-02-08T20:24:09.686Z,99993.78
2023-02-08T20:26:40.386Z,100003.97
2023-02-08T20:29:08.147Z,100002.88
2023-02-08T20:31:37.092Z,100000.50
2023-02-08T20:34:07.650Z,99999.78
2023-02-08T20:36:44.135Z,100006.59
2023-02-08T20:39:14.192Z,99996.22
2023-02-08T20:41:44.275Z,99993.69
2023-02-08T20:44:12.732Z,99999.72
2023-02-08T20:46:39.406Z,100008.34
2023-02-08T20:49:07.306Z,99997.81
2023-02-08T20:51:35.180Z,100003.03
2023-02-08T20:54:03.338Z,100002.34
2023-02-08T20:56:33.651Z,100005.88
2023-02-08T20:59:13.671Z,99995.13
2023-02-08T21:01:40.434Z,100001.06
2023-02-08T21:04:07.121Z,100001.91
2023-02-08T21:06:35.929Z,99993.25
2023-02-08T21:09:06.580Z,99995.81
2023-02-08T21:11:33.926Z,99997.47
2023-02-08T21:14:01.287Z,99993.81
2023-02-08T21:16:28.640Z,99996.16
2023-02-08T21:18:57.099Z,100009.09
2023-02-08T21:21:24.521Z,100001.44
2023-02-08T21:23:51.193Z,99998.78
2023-02-08T21:26:20.861Z,99998.84
2023-02-08T21:28:47.894Z,99987.50
2023-02-08T21:31:17.771Z,99992.31
2023-02-08T21:33:45.463Z,99988.72
2023-02-08T21:36:16.088Z,99988.78
2023-02-08T21:38:43.768Z,99984.63
2023-02-08T21:41:16.263Z,99993.22
2023-02-08T21:43:43.022Z,99982.13
2023-02-08T21:46:10.217Z,99984.03
2023-02-08T21:48:56.034Z,99979.66
2023-02-08T21:51:42.762Z,99976.22
2023-02-08T21:54:34.098Z,99977.22
2023-02-08T21:57:03.133Z,99973.06
2023-02-08T21:59:35.105Z,99977.69
2023-02-08T22:02:01.900Z,99973.16
2023-02-08T22:04:28.622Z,99972.28
2023-02-08T22:06:55.362Z,99977.09
2023-02-08T22:09:22.012Z,99981.88
2023-02-08T22:11:49.074Z,99979.94
2023-02-08T22:14:16.249Z,99979.16
2023-02-08T22:16:42.926Z,99983.66
2023-02-08T22:19:09.579Z,99979.38
2023-02-08T22:21:36.347Z,99978.69
2023-02-08T22:24:03.229Z,99968.84
2023-02-08T22:26:29.891Z,99975.66
2023-02-08T22:28:56.630Z,99978.13
2023-02-08T22:31:23.530Z,99965.94
2023-02-08T22:33:54.681Z,99959.13
2023-02-08T22:36:21.635Z,99965.53
2023-02-08T22:38:48.501Z,99957.22
2023-02-08T22:41:17.290Z,99952.03
2023-02-08T22:43:44.583Z,99954.72
2023-02-08T22:46:11.527Z,99956.41
2023-02-08T22:48:38.565Z,99959.03
2023-02-08T22:51:10.136Z,99953.81
2023-02-08T22:53:36.856Z,99947.50
2023-02-08T22:56:04.196Z,99951.69
2023-02-08T22:58:30.998Z,99947.72
2023-02-08T23:00:57.611Z,99949.69
2023-02-08T23:03:24.333Z,99952.59
2023-02-08T23:05:51.820Z,99960.09
2023-02-08T23:08:21.477Z,99952.88
2023-02-08T23:10:48.393Z,99959.91
2023-02-08T23:13:15.160Z,99948.88
2023-02-08T23:15:44.106Z,99961.69
2023-02-08T23:18:10.936Z,99954.50
2023-02-08T23:20:39.748Z,99957.00
2023-02-08T23:23:06.797Z,99957.69
2023-02-08T23:25:33.633Z,99957.06
2023-02-08T23:28:00.267Z,99959.13
2023-02-08T23:30:27.086Z,99958.47
2023-02-08T23:32:53.880Z,99962.75
2023-02-08T23:35:20.563Z,99970.59
2023-02-08T23:37:47.238Z,99975.75
2023-02-08T23:40:14.196Z,99968.84
2023-02-08T23:42:40.878Z,99969.78
2023-02-08T23:45:07.974Z,99964.44
2023-02-08T23:47:34.830Z,99958.13
2023-02-08T23:50:01.520Z,99960.75
2023-02-08T23:52:28.144Z,99963.16
2023-02-08T23:54:54.806Z,99953.66
2023-02-08T23:57:21.475Z,99954.41
2023-02-08T23:59:48.188Z,99955.13
